Terminal Aerodrome Forecast
Issued by NWS

Home | Current Version | Previous Version | Text Only | Print | Product List | Glossary On
Versions: 1 2 3 4 5 6 7 8 9 10 11 12 13 14 15
000
FTUS45 KRIW 222300
TAFCPR
TAF
KCPR 222326Z 2300/2324 10011KT P6SM VCTS SCT080CB BKN100
     FM230200 16008KT P6SM VCSH SCT050 BKN100
     FM231000 VRB04KT P6SM VCFG SCT010 BKN250
     FM231400 25011KT P6SM FEW015 SCT100
     FM231900 25014G21KT P6SM SCT060
     FM232200 25015G25KT P6SM VCSH BKN060=

USA.gov is the U.S. government's official web portal to all federal, state and local government web resources and services.